createdAt,value
2023-01-26T00:01:29.288Z,8.50
2023-01-26T00:03:57.317Z,8.50
2023-01-26T00:06:25.031Z,8.50
2023-01-26T00:08:54.195Z,8.50
2023-01-26T00:11:30.323Z,8.50
2023-01-26T00:13:59.158Z,8.50
2023-01-26T00:16:27.536Z,8.50
2023-01-26T00:18:54.641Z,8.50
2023-01-26T00:21:23.513Z,8.50
2023-01-26T00:23:51.996Z,8.50
2023-01-26T00:26:24.987Z,8.50
2023-01-26T00:28:52.944Z,8.50
2023-01-26T00:31:22.757Z,8.50
2023-01-26T00:33:49.915Z,8.50
2023-01-26T00:36:16.893Z,8.50
2023-01-26T00:38:44.144Z,8.50
2023-01-26T00:41:34.388Z,8.50
2023-01-26T00:44:01.591Z,8.50
2023-01-26T00:46:28.692Z,8.50
2023-01-26T00:48:55.755Z,8.50
2023-01-26T00:51:22.768Z,8.40
2023-01-26T00:53:49.674Z,8.40
2023-01-26T00:56:16.687Z,8.50
2023-01-26T00:58:45.497Z,8.50
2023-01-26T01:01:12.995Z,8.50
2023-01-26T01:03:40.058Z,8.50
2023-01-26T01:06:07.125Z,8.50
2023-01-26T01:08:34.091Z,8.50
2023-01-26T01:11:10.076Z,8.50
2023-01-26T01:13:37.589Z,8.50
2023-01-26T01:16:09.766Z,8.50
2023-01-26T01:18:37.352Z,8.50
2023-01-26T01:21:08.813Z,8.50
2023-01-26T01:23:36.045Z,8.50
2023-01-26T01:26:04.188Z,8.50
2023-01-26T01:28:32.360Z,8.50
2023-01-26T01:30:59.420Z,8.50
2023-01-26T01:33:26.550Z,8.50
2023-01-26T01:36:05.570Z,8.50
2023-01-26T01:38:33.198Z,8.50
2023-01-26T01:41:00.505Z,8.50
2023-01-26T01:43:28.474Z,8.50
2023-01-26T01:45:56.130Z,8.50
2023-01-26T01:48:30.171Z,8.50
2023-01-26T01:51:02.935Z,8.50
2023-01-26T01:53:44.937Z,8.50
2023-01-26T01:56:19.227Z,8.50
2023-01-26T01:58:46.816Z,8.50
2023-01-26T02:01:13.900Z,8.50
2023-01-26T02:03:43.576Z,8.50
2023-01-26T02:06:17.548Z,8.50
2023-01-26T02:08:48.187Z,8.50
2023-01-26T02:11:19.626Z,8.50
2023-01-26T02:13:49.143Z,8.50
2023-01-26T02:16:18.236Z,8.50
2023-01-26T02:18:46.413Z,8.50
2023-01-26T02:21:19.942Z,8.50
2023-01-26T02:24:02.274Z,8.60
2023-01-26T02:26:39.109Z,8.60
2023-01-26T02:29:10.917Z,8.50
2023-01-26T02:31:39.901Z,8.50
2023-01-26T02:34:07.254Z,8.50
2023-01-26T02:36:35.199Z,8.60
2023-01-26T02:39:21.252Z,8.60
2023-01-26T02:42:08.905Z,8.60
2023-01-26T02:44:37.139Z,8.60
2023-01-26T02:47:22.421Z,8.60
2023-01-26T02:49:52.644Z,8.60
2023-01-26T02:52:26.140Z,8.60
2023-01-26T02:55:23.411Z,8.60
2023-01-26T02:57:53.938Z,8.60
2023-01-26T03:00:27.398Z,8.50
2023-01-26T03:02:57.975Z,8.50
2023-01-26T03:05:25.839Z,8.50
2023-01-26T03:07:52.863Z,8.50
2023-01-26T03:10:20.001Z,8.50
2023-01-26T03:12:47.181Z,8.50
2023-01-26T03:15:32.455Z,8.50
2023-01-26T03:18:27.184Z,8.50
2023-01-26T03:21:12.940Z,8.60
2023-01-26T03:23:58.582Z,8.50
2023-01-26T03:26:44.146Z,8.50
2023-01-26T03:29:11.176Z,8.50
2023-01-26T03:31:38.191Z,8.50
2023-01-26T03:34:05.144Z,8.50
2023-01-26T03:36:32.116Z,8.50
2023-01-26T03:38:59.118Z,8.50
2023-01-26T03:41:44.964Z,8.50
2023-01-26T03:44:30.732Z,8.50
2023-01-26T03:47:16.549Z,8.50
2023-01-26T03:50:02.306Z,8.50
2023-01-26T03:52:50.958Z,8.50
2023-01-26T03:55:36.985Z,8.50
2023-01-26T03:58:03.987Z,8.50
2023-01-26T04:00:31.097Z,8.50
2023-01-26T04:03:16.930Z,8.50
2023-01-26T04:06:16.462Z,8.60
2023-01-26T04:08:45.031Z,8.60
2023-01-26T04:11:12.229Z,8.60
2023-01-26T04:13:57.668Z,8.60
2023-01-26T04:16:43.364Z,8.60
2023-01-26T04:19:29.349Z,8.60
2023-01-26T04:21:56.549Z,8.60
2023-01-26T04:24:24.770Z,8.70
2023-01-26T04:26:52.046Z,8.70
2023-01-26T04:29:19.271Z,8.70
2023-01-26T04:31:46.421Z,8.70
2023-01-26T04:34:15.815Z,8.70
2023-01-26T04:36:43.936Z,8.70
2023-01-26T04:39:11.234Z,8.80
2023-01-26T04:41:40.112Z,8.80
2023-01-26T04:44:08.718Z,8.80
2023-01-26T04:46:35.770Z,8.80
2023-01-26T04:49:02.900Z,8.80
2023-01-26T04:51:29.969Z,8.80
2023-01-26T04:53:57.095Z,8.80
2023-01-26T04:56:29.893Z,8.80
2023-01-26T04:58:59.385Z,8.80
2023-01-26T05:01:27.370Z,8.80
2023-01-26T05:03:54.549Z,8.80
2023-01-26T05:06:21.733Z,8.80
2023-01-26T05:08:48.748Z,8.80
2023-01-26T05:11:15.834Z,8.80
2023-01-26T05:13:42.995Z,8.80
2023-01-26T05:16:14.040Z,8.80
2023-01-26T05:18:42.016Z,8.80
2023-01-26T05:21:10.711Z,8.70
2023-01-26T05:23:38.167Z,8.80
2023-01-26T05:26:05.633Z,8.80
2023-01-26T05:28:34.002Z,8.80
2023-01-26T05:31:01.086Z,8.80
2023-01-26T05:33:28.276Z,8.80
2023-01-26T05:35:55.625Z,8.80
2023-01-26T05:38:22.902Z,8.80
2023-01-26T05:40:50.135Z,8.80
2023-01-26T05:43:17.048Z,8.80
2023-01-26T05:45:44.469Z,8.90
2023-01-26T05:48:11.453Z,8.90
2023-01-26T05:50:38.511Z,8.90
2023-01-26T05:53:06.271Z,8.90
2023-01-26T05:55:33.318Z,8.90
2023-01-26T05:58:00.304Z,8.90
2023-01-26T06:00:27.388Z,8.90
2023-01-26T06:02:54.461Z,8.90
2023-01-26T06:05:21.419Z,8.90
2023-01-26T06:07:48.416Z,8.90
2023-01-26T06:10:15.527Z,8.90
2023-01-26T06:12:43.224Z,8.90
2023-01-26T06:15:12.505Z,8.90
2023-01-26T06:17:39.897Z,8.90
2023-01-26T06:20:07.803Z,8.90
2023-01-26T06:22:34.755Z,9.00
2023-01-26T06:25:01.907Z,9.00
2023-01-26T06:27:29.591Z,9.00
2023-01-26T06:29:56.828Z,9.00
2023-01-26T06:32:25.408Z,8.90
2023-01-26T06:34:53.423Z,8.90
2023-01-26T06:37:20.418Z,8.90
2023-01-26T06:39:47.413Z,8.90
2023-01-26T06:42:14.385Z,8.90
2023-01-26T06:44:41.334Z,8.90
2023-01-26T06:47:08.855Z,8.90
2023-01-26T06:49:36.054Z,8.90
2023-01-26T06:52:25.344Z,8.90
2023-01-26T06:54:52.736Z,8.90
2023-01-26T06:57:19.863Z,8.90
2023-01-26T06:59:47.003Z,9.00
2023-01-26T07:02:19.811Z,8.90
2023-01-26T07:04:48.069Z,9.00
2023-01-26T07:07:15.127Z,8.90
2023-01-26T07:09:42.129Z,9.00
2023-01-26T07:12:09.643Z,9.00
2023-01-26T07:14:36.772Z,9.00
2023-01-26T07:17:04.159Z,8.90
2023-01-26T07:19:33.355Z,9.00
2023-01-26T07:22:01.217Z,9.00
2023-01-26T07:24:28.946Z,9.00
2023-01-26T07:26:56.637Z,9.00
2023-01-26T07:29:23.851Z,9.00
2023-01-26T07:31:51.396Z,9.00
2023-01-26T07:34:18.539Z,9.00
2023-01-26T07:36:45.641Z,9.00
2023-01-26T07:39:12.618Z,9.00
2023-01-26T07:41:39.617Z,9.00
2023-01-26T07:44:10.091Z,9.00
2023-01-26T07:46:37.399Z,9.00
2023-01-26T07:49:04.404Z,9.00
2023-01-26T07:51:31.564Z,9.00
2023-01-26T07:53:59.047Z,9.00
2023-01-26T07:56:26.361Z,9.00
2023-01-26T07:58:54.420Z,9.10
2023-01-26T08:01:22.389Z,9.10
2023-01-26T08:03:51.871Z,9.10
2023-01-26T08:06:19.237Z,9.10
2023-01-26T08:08:51.153Z,9.10
2023-01-26T08:11:19.703Z,9.10
2023-01-26T08:13:46.731Z,9.20
2023-01-26T08:16:13.848Z,9.20
2023-01-26T08:18:42.277Z,9.10
2023-01-26T08:21:10.352Z,9.20
2023-01-26T08:23:37.502Z,9.20
2023-01-26T08:26:06.826Z,9.10
2023-01-26T08:28:34.475Z,9.10
2023-01-26T08:31:13.104Z,9.10
2023-01-26T08:33:42.435Z,9.10
2023-01-26T08:36:12.824Z,9.10
2023-01-26T08:38:40.490Z,9.10
2023-01-26T08:41:07.893Z,9.10
2023-01-26T08:43:35.203Z,9.10
2023-01-26T08:46:02.885Z,9.10
2023-01-26T08:48:31.258Z,9.20
2023-01-26T08:51:00.584Z,9.30
2023-01-26T08:53:30.998Z,9.30
2023-01-26T08:55:58.159Z,9.30
2023-01-26T08:58:25.153Z,9.30
2023-01-26T09:00:52.578Z,9.30
2023-01-26T09:03:19.633Z,9.30
2023-01-26T09:05:46.579Z,9.30
2023-01-26T09:08:13.529Z,9.30
2023-01-26T09:10:40.502Z,9.30
2023-01-26T09:13:07.405Z,9.30
2023-01-26T09:15:34.332Z,9.40
2023-01-26T09:18:01.349Z,9.40
2023-01-26T09:20:28.991Z,9.40
2023-01-26T09:22:56.078Z,9.40
2023-01-26T09:25:23.143Z,9.50
2023-01-26T09:27:50.179Z,9.40
2023-01-26T09:30:17.734Z,9.40
2023-01-26T09:32:44.766Z,9.50
2023-01-26T09:35:14.230Z,9.50
2023-01-26T09:37:43.703Z,9.50
2023-01-26T09:40:22.139Z,9.50
2023-01-26T09:43:00.369Z,9.50
2023-01-26T09:45:38.861Z,9.60
2023-01-26T09:48:27.143Z,9.60
2023-01-26T09:51:03.611Z,9.60
2023-01-26T09:53:48.055Z,9.60
2023-01-26T09:56:22.053Z,9.70
2023-01-26T09:59:26.547Z,9.70
2023-01-26T10:02:01.121Z,9.70
2023-01-26T10:04:40.902Z,9.70
2023-01-26T10:07:13.992Z,9.70
2023-01-26T10:09:46.147Z,9.70
2023-01-26T10:12:25.617Z,9.70
2023-01-26T10:15:13.454Z,9.80
2023-01-26T10:17:44.034Z,9.80
2023-01-26T10:20:47.563Z,9.80
2023-01-26T10:23:28.095Z,9.90
2023-01-26T10:26:34.441Z,9.90
2023-01-26T10:29:02.236Z,9.90
2023-01-26T10:31:32.538Z,9.90
2023-01-26T10:34:22.611Z,9.90
2023-01-26T10:36:49.556Z,9.90
2023-01-26T10:39:18.059Z,9.90
2023-01-26T10:42:00.371Z,9.90
2023-01-26T10:44:35.205Z,9.90
2023-01-26T10:47:16.525Z,10.00
2023-01-26T10:49:44.107Z,10.00
2023-01-26T10:52:25.519Z,10.00
2023-01-26T10:55:19.917Z,10.00
2023-01-26T10:57:47.105Z,10.00
2023-01-26T11:00:26.173Z,10.00
2023-01-26T11:02:56.131Z,10.00
2023-01-26T11:05:27.286Z,10.00
2023-01-26T11:08:00.266Z,10.00
2023-01-26T11:10:51.130Z,10.00
2023-01-26T11:13:20.507Z,10.00
2023-01-26T11:16:26.808Z,10.00
2023-01-26T11:18:58.484Z,10.00
2023-01-26T11:21:32.143Z,10.10
2023-01-26T11:24:21.272Z,10.10
2023-01-26T11:26:48.255Z,10.10
2023-01-26T11:29:41.650Z,10.10
2023-01-26T11:32:11.548Z,10.20
2023-01-26T11:35:28.939Z,10.20
2023-01-26T11:38:19.022Z,10.20
2023-01-26T11:40:57.994Z,10.20
2023-01-26T11:43:53.905Z,10.20
2023-01-26T11:46:29.614Z,10.30
2023-01-26T11:49:18.875Z,10.30
2023-01-26T11:52:24.527Z,10.40
2023-01-26T11:55:00.874Z,10.40
2023-01-26T11:58:05.315Z,10.40
2023-01-26T12:00:43.063Z,10.40
2023-01-26T12:03:34.277Z,10.40
2023-01-26T12:06:07.386Z,10.50
2023-01-26T12:08:45.384Z,10.50
2023-01-26T12:11:26.394Z,10.50
2023-01-26T12:14:12.855Z,10.60
2023-01-26T12:16:45.987Z,10.60
2023-01-26T12:19:32.782Z,10.60
2023-01-26T12:22:06.298Z,10.60
2023-01-26T12:25:16.052Z,10.70
2023-01-26T12:27:38.878Z,10.70
2023-01-26T12:30:20.372Z,10.70
2023-01-26T12:32:47.545Z,10.80
2023-01-26T12:35:21.278Z,10.80
2023-01-26T12:38:18.010Z,10.90
2023-01-26T12:41:04.205Z,10.90
2023-01-26T12:43:47.409Z,11.00
2023-01-26T12:46:15.873Z,11.00
2023-01-26T12:49:02.984Z,11.00
2023-01-26T12:51:48.260Z,11.00
2023-01-26T12:54:27.716Z,11.00
2023-01-26T12:56:59.139Z,11.00
2023-01-26T12:59:38.351Z,11.10
2023-01-26T13:02:16.218Z,11.10
2023-01-26T13:04:46.674Z,11.20
2023-01-26T13:07:45.205Z,11.20
2023-01-26T13:10:16.192Z,11.30
2023-01-26T13:12:53.498Z,11.30
2023-01-26T13:15:23.641Z,11.40
2023-01-26T13:17:56.651Z,11.50
2023-01-26T13:20:40.806Z,11.50
2023-01-26T13:23:40.679Z,11.60
2023-01-26T13:26:21.345Z,11.60
2023-01-26T13:28:49.272Z,11.60
2023-01-26T13:31:33.894Z,11.70
2023-01-26T13:34:07.707Z,11.70
2023-01-26T13:36:38.755Z,11.70
2023-01-26T13:39:34.952Z,11.80
2023-01-26T13:42:04.000Z,11.80
2023-01-26T13:44:38.438Z,11.90
2023-01-26T13:47:16.436Z,11.90
2023-01-26T13:49:45.158Z,11.90
2023-01-26T13:52:21.926Z,12.00
2023-01-26T13:54:50.831Z,12.00
2023-01-26T13:57:24.081Z,12.00
2023-01-26T13:59:53.910Z,12.10
2023-01-26T14:02:24.387Z,12.00
2023-01-26T14:04:55.715Z,12.10
2023-01-26T14:07:34.711Z,12.10
2023-01-26T14:10:05.344Z,12.10
2023-01-26T14:12:41.149Z,12.10
2023-01-26T14:15:20.936Z,12.20
2023-01-26T14:17:56.852Z,12.20
2023-01-26T14:20:39.499Z,12.20
2023-01-26T14:23:07.435Z,12.20
2023-01-26T14:25:34.781Z,12.20
2023-01-26T14:28:01.851Z,12.30
2023-01-26T14:30:31.571Z,12.30
2023-01-26T14:33:19.024Z,12.30
2023-01-26T14:36:16.911Z,12.30
2023-01-26T14:38:46.246Z,12.30
2023-01-26T14:41:28.678Z,12.30
2023-01-26T14:47:46.540Z,12.40
2023-01-26T14:50:28.542Z,12.30
2023-01-26T14:52:56.013Z,12.40
2023-01-26T14:55:33.272Z,12.40
2023-01-26T14:58:03.804Z,12.40
2023-01-26T15:00:40.272Z,12.40
2023-01-26T15:03:22.124Z,12.40
2023-01-26T15:05:49.330Z,12.40
2023-01-26T15:08:23.673Z,12.40
2023-01-26T15:11:16.386Z,12.40
2023-01-26T15:13:46.255Z,12.50
2023-01-26T15:16:16.903Z,12.50
2023-01-26T15:18:44.520Z,12.50
2023-01-26T15:21:11.587Z,12.50
2023-01-26T15:23:42.948Z,12.50
2023-01-26T15:26:12.797Z,12.50
2023-01-26T15:28:39.837Z,12.60
2023-01-26T15:31:07.994Z,12.50
2023-01-26T15:33:52.616Z,12.60
2023-01-26T15:36:27.823Z,12.50
2023-01-26T15:38:59.992Z,12.50
2023-01-26T15:41:28.341Z,12.50
2023-01-26T15:43:56.070Z,12.50
2023-01-26T15:46:23.107Z,12.60
2023-01-26T15:48:50.205Z,12.60
2023-01-26T15:51:17.315Z,12.60
2023-01-26T15:53:44.353Z,12.60
2023-01-26T15:56:16.198Z,12.60
2023-01-26T15:58:43.770Z,12.60
2023-01-26T16:01:16.032Z,12.60
2023-01-26T16:03:43.171Z,12.60
2023-01-26T16:06:21.032Z,12.60
2023-01-26T16:08:48.274Z,12.60
2023-01-26T16:11:15.917Z,12.60
2023-01-26T16:13:53.971Z,12.60
2023-01-26T16:16:29.547Z,12.60
2023-01-26T16:18:57.308Z,12.60
2023-01-26T16:21:36.480Z,12.60
2023-01-26T16:24:04.292Z,12.70
2023-01-26T16:26:32.333Z,12.60
2023-01-26T16:28:59.511Z,12.60
2023-01-26T16:31:30.091Z,12.60
2023-01-26T16:33:58.322Z,12.60
2023-01-26T16:36:25.611Z,12.60
2023-01-26T16:38:52.752Z,12.60
2023-01-26T16:41:27.197Z,12.60
2023-01-26T16:43:56.135Z,12.60
2023-01-26T16:46:24.041Z,12.60
2023-01-26T16:48:51.491Z,12.60
2023-01-26T16:51:29.673Z,12.60
2023-01-26T16:53:57.076Z,12.60
2023-01-26T16:56:25.541Z,12.60
2023-01-26T16:58:52.493Z,12.60
2023-01-26T17:01:23.486Z,12.60
2023-01-26T17:03:51.248Z,12.60
2023-01-26T17:06:20.054Z,12.60
2023-01-26T17:08:47.289Z,12.60
2023-01-26T17:11:28.252Z,12.60
2023-01-26T17:13:56.599Z,12.60
2023-01-26T17:16:29.807Z,12.60
2023-01-26T17:18:56.793Z,12.60
2023-01-26T17:21:23.841Z,12.60
2023-01-26T17:23:52.459Z,12.70
2023-01-26T17:26:20.761Z,12.70
2023-01-26T17:28:49.506Z,12.70
2023-01-26T17:31:18.835Z,12.70
2023-01-26T17:33:47.670Z,12.70
2023-01-26T17:36:16.241Z,12.70
2023-01-26T17:38:43.737Z,12.70
2023-01-26T17:41:10.823Z,12.70
2023-01-26T17:43:37.739Z,12.70
2023-01-26T17:46:11.416Z,12.70
2023-01-26T17:48:39.631Z,12.70
2023-01-26T17:51:08.911Z,12.70
2023-01-26T17:53:40.437Z,12.60
2023-01-26T17:56:13.142Z,12.60
2023-01-26T17:58:40.658Z,12.60
2023-01-26T18:01:09.905Z,12.60
2023-01-26T18:03:41.059Z,12.60
2023-01-26T18:06:08.459Z,12.60
2023-01-26T18:08:37.116Z,12.60
2023-01-26T18:11:06.383Z,12.60
2023-01-26T18:13:33.913Z,12.60
2023-01-26T18:16:00.986Z,12.60
2023-01-26T18:18:29.941Z,12.60
2023-01-26T18:20:57.371Z,12.60
2023-01-26T18:23:24.974Z,12.60
2023-01-26T18:25:52.704Z,12.60
2023-01-26T18:28:19.742Z,12.60
2023-01-26T18:30:46.815Z,12.60
2023-01-26T18:33:13.922Z,12.60
2023-01-26T18:35:40.996Z,12.60
2023-01-26T18:38:07.996Z,12.70
2023-01-26T18:40:35.287Z,12.70
2023-01-26T18:43:02.273Z,12.70
2023-01-26T18:45:29.491Z,12.70
2023-01-26T18:47:56.560Z,12.70
2023-01-26T18:50:23.538Z,12.70
2023-01-26T18:52:51.754Z,12.70
2023-01-26T18:55:18.716Z,12.70
2023-01-26T18:57:45.853Z,12.70
2023-01-26T19:00:14.070Z,12.70
2023-01-26T19:02:41.072Z,12.70
2023-01-26T19:05:08.750Z,12.70
2023-01-26T19:07:35.895Z,12.70
2023-01-26T19:10:05.038Z,12.60
2023-01-26T19:12:32.295Z,12.60
2023-01-26T19:14:59.443Z,12.60
2023-01-26T19:17:26.420Z,12.60
2023-01-26T19:19:53.488Z,12.60
2023-01-26T19:22:20.734Z,12.50
2023-01-26T19:24:47.829Z,12.50
2023-01-26T19:27:14.833Z,12.50
2023-01-26T19:29:41.817Z,12.50
2023-01-26T19:32:08.797Z,12.60
2023-01-26T19:34:36.042Z,12.60
2023-01-26T19:37:03.026Z,12.60
2023-01-26T19:39:31.123Z,12.60
2023-01-26T19:41:58.113Z,12.60
2023-01-26T19:44:25.141Z,12.60
2023-01-26T19:46:53.676Z,12.60
2023-01-26T19:49:21.455Z,12.70
2023-01-26T19:51:49.065Z,12.60
2023-01-26T19:54:18.953Z,12.60
2023-01-26T19:56:45.997Z,12.70
2023-01-26T19:59:13.269Z,12.60
2023-01-26T20:01:40.430Z,12.60
2023-01-26T20:04:11.273Z,12.60
2023-01-26T20:06:38.376Z,12.60
2023-01-26T20:09:07.136Z,12.60
2023-01-26T20:11:34.707Z,12.60
2023-01-26T20:14:04.372Z,12.60
2023-01-26T20:16:31.489Z,12.60
2023-01-26T20:18:59.663Z,12.60
2023-01-26T20:21:28.424Z,12.60
2023-01-26T20:23:56.217Z,12.50
2023-01-26T20:26:25.974Z,12.60
2023-01-26T20:28:56.147Z,12.60
2023-01-26T20:31:26.297Z,12.60
2023-01-26T20:33:53.682Z,12.60
2023-01-26T20:36:24.043Z,12.60
2023-01-26T20:38:51.695Z,12.60
2023-01-26T20:41:24.880Z,12.60
2023-01-26T20:43:59.735Z,12.60
2023-01-26T20:46:31.292Z,12.60
2023-01-26T20:48:58.805Z,12.60
2023-01-26T20:51:30.452Z,12.50
2023-01-26T20:53:58.280Z,12.60
2023-01-26T20:56:26.316Z,12.60
2023-01-26T20:58:55.331Z,12.60
2023-01-26T21:01:23.870Z,12.60
2023-01-26T21:03:52.540Z,12.60
2023-01-26T21:06:21.221Z,12.60
2023-01-26T21:08:49.847Z,12.60
2023-01-26T21:11:17.849Z,12.60
2023-01-26T21:13:45.421Z,12.60
2023-01-26T21:16:17.157Z,12.60
2023-01-26T21:18:46.088Z,12.70
2023-01-26T21:21:17.866Z,12.70
2023-01-26T21:23:45.954Z,12.70
2023-01-26T21:26:19.152Z,12.60
2023-01-26T21:28:51.544Z,12.70
2023-01-26T21:31:22.069Z,12.70
2023-01-26T21:33:50.025Z,12.70
2023-01-26T21:36:22.726Z,12.70
2023-01-26T21:38:52.053Z,12.70
2023-01-26T21:41:40.854Z,12.70
2023-01-26T21:44:16.604Z,12.70
2023-01-26T21:46:46.300Z,12.70
2023-01-26T21:49:14.413Z,12.70
2023-01-26T21:52:00.258Z,12.70
2023-01-26T21:54:29.573Z,12.70
2023-01-26T21:56:57.244Z,12.70
2023-01-26T21:59:24.302Z,12.70
2023-01-26T22:01:53.745Z,12.70
2023-01-26T22:04:23.806Z,12.70
2023-01-26T22:06:52.293Z,12.70
2023-01-26T22:09:19.515Z,12.70
2023-01-26T22:11:46.671Z,12.70
2023-01-26T22:14:16.526Z,12.70
2023-01-26T22:16:43.460Z,12.70
2023-01-26T22:19:11.000Z,12.70
2023-01-26T22:21:38.702Z,12.70
2023-01-26T22:24:06.757Z,12.70
2023-01-26T22:26:34.061Z,12.70
2023-01-26T22:29:01.220Z,12.70
2023-01-26T22:31:30.104Z,12.70
2023-01-26T22:33:58.524Z,12.70
2023-01-26T22:36:26.985Z,12.70
2023-01-26T22:38:54.224Z,12.70
2023-01-26T22:41:26.919Z,12.70
2023-01-26T22:43:56.417Z,12.70
2023-01-26T22:46:24.661Z,12.70
2023-01-26T22:48:52.100Z,12.70
2023-01-26T22:51:24.953Z,12.70
2023-01-26T22:53:53.470Z,12.70
2023-01-26T22:56:21.768Z,12.70
2023-01-26T22:58:59.669Z,12.70
2023-01-26T23:01:30.348Z,12.70
2023-01-26T23:03:58.478Z,12.70
2023-01-26T23:06:26.385Z,12.70
2023-01-26T23:08:54.190Z,12.70
2023-01-26T23:11:26.709Z,12.70
2023-01-26T23:13:55.737Z,12.70
2023-01-26T23:16:24.282Z,12.70
2023-01-26T23:18:53.410Z,12.70
2023-01-26T23:21:20.728Z,12.70
2023-01-26T23:23:48.522Z,12.70
2023-01-26T23:26:15.588Z,12.70
2023-01-26T23:28:43.576Z,12.70
2023-01-26T23:31:12.352Z,12.80
2023-01-26T23:33:39.674Z,12.70
2023-01-26T23:36:08.279Z,12.80
2023-01-26T23:38:35.715Z,12.80
2023-01-26T23:41:05.392Z,12.80
2023-01-26T23:43:32.409Z,12.70
2023-01-26T23:45:59.602Z,12.80
2023-01-26T23:48:26.821Z,12.80
2023-01-26T23:51:01.752Z,12.70
2023-01-26T23:53:30.753Z,12.70
2023-01-26T23:56:05.622Z,12.70
2023-01-26T23:58:32.646Z,12.70
